createdAt,value
2022-10-01T00:01:19.008Z,98639.13
2022-10-01T00:03:47.870Z,98715.09
2022-10-01T00:06:18.290Z,98677.63
2022-10-01T00:08:48.793Z,98605.78
2022-10-01T00:11:23.508Z,98575.94
2022-10-01T00:13:51.077Z,98577.75
2022-10-01T00:16:26.313Z,98590.06
2022-10-01T00:18:53.930Z,98589.75
2022-10-01T00:21:27.161Z,98595.84
2022-10-01T00:23:58.877Z,98596.00
2022-10-01T00:26:29.606Z,98594.88
2022-10-01T00:28:59.515Z,98599.59
2022-10-01T00:31:27.411Z,98598.94
2022-10-01T00:33:55.528Z,98594.94
2022-10-01T00:36:22.590Z,98593.59
2022-10-01T00:38:50.100Z,98592.28
2022-10-01T00:41:18.367Z,98587.84
2022-10-01T00:43:48.340Z,98599.47
2022-10-01T00:46:25.418Z,98587.88
2022-10-01T00:48:58.880Z,98593.19
2022-10-01T00:51:29.642Z,98594.31
2022-10-01T00:54:06.294Z,98586.66
2022-10-01T00:56:34.204Z,98581.75
2022-10-01T00:59:01.958Z,98578.97
2022-10-01T01:01:29.020Z,98570.91
2022-10-01T01:03:56.910Z,98578.94
2022-10-01T01:06:24.141Z,98588.97
2022-10-01T01:08:55.159Z,98581.75
2022-10-01T01:11:37.319Z,98588.97
2022-10-01T01:14:13.537Z,98594.25
2022-10-01T01:16:50.023Z,98590.72
2022-10-01T01:19:50.541Z,98592.00
2022-10-01T01:22:20.444Z,98594.28
2022-10-01T01:24:51.343Z,98590.66
2022-10-01T01:27:33.794Z,98593.91
2022-10-01T01:30:10.871Z,98589.19
2022-10-01T01:33:03.127Z,98585.41
2022-10-01T01:35:47.192Z,98589.22
2022-10-01T01:38:19.081Z,98582.47
2022-10-01T01:40:51.412Z,98586.72
2022-10-01T01:43:22.904Z,98591.44
2022-10-01T01:45:51.703Z,98584.41
2022-10-01T01:48:19.063Z,98572.81
2022-10-01T01:51:05.202Z,98567.69
2022-10-01T01:53:32.545Z,98568.66
2022-10-01T01:56:00.440Z,98553.37
2022-10-01T01:58:28.494Z,98549.25
2022-10-01T02:00:55.808Z,98561.09
2022-10-01T02:03:25.863Z,98557.44
2022-10-01T02:06:04.959Z,98549.09
2022-10-01T02:08:43.529Z,98538.56
2022-10-01T02:11:36.982Z,98531.47
2022-10-01T02:14:28.657Z,98536.56
2022-10-01T02:17:03.669Z,98552.78
2022-10-01T02:19:58.676Z,98567.75
2022-10-01T02:22:42.722Z,98573.31
2022-10-01T02:25:09.907Z,98560.31
2022-10-01T02:27:40.685Z,98555.56
2022-10-01T02:30:09.987Z,98551.97
2022-10-01T02:32:39.634Z,98557.75
2022-10-01T02:35:07.828Z,98569.91
2022-10-01T02:37:36.685Z,98567.28
2022-10-01T02:40:07.057Z,98567.94
2022-10-01T02:42:36.187Z,98570.88
2022-10-01T02:45:04.483Z,98559.06
2022-10-01T02:47:43.640Z,98571.03
2022-10-01T02:50:11.314Z,98571.56
2022-10-01T02:52:41.155Z,98568.78
2022-10-01T02:55:14.999Z,98580.09
2022-10-01T02:57:42.345Z,98581.78
2022-10-01T03:00:15.552Z,98580.09
2022-10-01T03:02:42.979Z,98579.06
2022-10-01T03:05:10.149Z,98575.16
2022-10-01T03:07:37.952Z,98572.19
2022-10-01T03:10:05.828Z,98572.53
2022-10-01T03:12:33.194Z,98557.75
2022-10-01T03:15:00.369Z,98556.78
2022-10-01T03:17:27.750Z,98571.91
2022-10-01T03:19:54.887Z,98566.00
2022-10-01T03:22:22.898Z,98564.69
2022-10-01T03:24:51.128Z,98587.22
2022-10-01T03:27:19.212Z,98603.94
2022-10-01T03:29:46.232Z,98628.97
2022-10-01T03:32:14.332Z,98612.88
2022-10-01T03:34:41.447Z,98629.50
2022-10-01T03:37:08.771Z,98626.72
2022-10-01T03:39:36.439Z,98624.62
2022-10-01T03:42:05.898Z,98605.25
2022-10-01T03:44:33.787Z,98610.69
2022-10-01T03:47:01.089Z,98599.88
2022-10-01T03:49:28.087Z,98600.41
2022-10-01T03:51:55.273Z,98603.69
2022-10-01T03:54:22.854Z,98598.81
2022-10-01T03:56:49.882Z,98593.19
2022-10-01T03:59:16.973Z,98590.19
2022-10-01T04:01:44.326Z,98574.94
2022-10-01T04:04:11.711Z,98574.94
2022-10-01T04:06:38.693Z,98578.34
2022-10-01T04:09:05.687Z,98566.69
2022-10-01T04:11:33.153Z,98566.88
2022-10-01T04:14:00.393Z,98572.97
2022-10-01T04:16:27.659Z,98565.44
2022-10-01T04:18:55.053Z,98571.97
2022-10-01T04:21:22.027Z,98561.31
2022-10-01T04:23:50.301Z,98564.56
2022-10-01T04:26:19.166Z,98560.75
2022-10-01T04:28:46.857Z,98565.84
2022-10-01T04:31:27.168Z,98569.16
2022-10-01T04:33:56.350Z,98575.56
2022-10-01T04:36:24.466Z,98563.06
2022-10-01T04:38:59.402Z,98569.16
2022-10-01T04:41:30.876Z,98570.50
2022-10-01T04:44:00.084Z,98569.81
2022-10-01T04:46:29.768Z,98576.28
2022-10-01T04:48:57.187Z,98573.13
2022-10-01T04:51:24.614Z,98561.47
2022-10-01T04:53:51.634Z,98564.09
2022-10-01T04:56:18.909Z,98568.84
2022-10-01T04:58:45.979Z,98578.41
2022-10-01T05:01:13.068Z,98581.69
2022-10-01T05:03:41.289Z,98588.59
2022-10-01T05:06:08.343Z,98596.84
2022-10-01T05:08:35.375Z,98615.44
2022-10-01T05:11:03.178Z,98629.41
2022-10-01T05:13:31.900Z,98622.47
2022-10-01T05:15:59.464Z,98619.88
2022-10-01T05:18:26.761Z,98633.19
2022-10-01T05:20:53.739Z,98640.09
2022-10-01T05:23:20.733Z,98611.81
2022-10-01T05:25:48.008Z,98607.03
2022-10-01T05:28:19.807Z,98608.00
2022-10-01T05:30:50.995Z,98596.84
2022-10-01T05:33:18.143Z,98594.03
2022-10-01T05:35:45.143Z,98600.44
2022-10-01T05:38:12.405Z,98597.97
2022-10-01T05:40:39.382Z,98614.91
2022-10-01T05:43:06.351Z,98612.94
2022-10-01T05:45:33.839Z,98622.31
2022-10-01T05:48:02.694Z,98630.53
2022-10-01T05:50:33.786Z,98626.72
2022-10-01T05:53:02.286Z,98611.44
2022-10-01T05:55:34.498Z,98595.16
2022-10-01T05:58:07.327Z,98582.00
2022-10-01T06:00:34.702Z,98583.81
2022-10-01T06:03:03.957Z,98580.56
2022-10-01T06:05:32.672Z,98578.44
2022-10-01T06:07:59.852Z,98576.13
2022-10-01T06:10:30.610Z,98563.34
2022-10-01T06:13:01.871Z,98552.84
2022-10-01T06:15:29.988Z,98553.84
2022-10-01T06:17:57.094Z,98553.66
2022-10-01T06:20:24.166Z,98548.69
2022-10-01T06:22:56.344Z,98560.41
2022-10-01T06:25:24.099Z,98573.25
2022-10-01T06:27:57.925Z,98586.09
2022-10-01T06:30:29.204Z,98593.22
2022-10-01T06:33:03.630Z,98599.19
2022-10-01T06:35:34.667Z,98593.09
2022-10-01T06:38:02.493Z,98593.59
2022-10-01T06:40:30.280Z,98586.72
2022-10-01T06:43:00.112Z,98592.31
2022-10-01T06:45:29.036Z,98594.75
2022-10-01T06:47:57.925Z,98602.19
2022-10-01T06:50:25.301Z,98602.97
2022-10-01T06:52:52.948Z,98602.66
2022-10-01T06:55:29.007Z,98606.59
2022-10-01T06:57:58.861Z,98601.00
2022-10-01T07:00:27.568Z,98589.50
2022-10-01T07:02:55.743Z,98591.81
2022-10-01T07:05:24.022Z,98580.63
2022-10-01T07:07:51.473Z,98585.69
2022-10-01T07:10:21.774Z,98577.16
2022-10-01T07:12:49.659Z,98567.09
2022-10-01T07:15:18.697Z,98561.69
2022-10-01T07:17:50.094Z,98561.84
2022-10-01T07:20:18.633Z,98564.31
2022-10-01T07:22:46.662Z,98570.06
2022-10-01T07:25:14.228Z,98570.38
2022-10-01T07:27:41.599Z,98572.22
2022-10-01T07:30:08.997Z,98563.88
2022-10-01T07:32:36.585Z,98554.50
2022-10-01T07:35:05.169Z,98555.16
2022-10-01T07:37:32.147Z,98556.62
2022-10-01T07:39:59.128Z,98555.50
2022-10-01T07:42:27.238Z,98551.38
2022-10-01T07:44:55.301Z,98563.41
2022-10-01T07:47:22.372Z,98563.88
2022-10-01T07:49:49.662Z,98571.47
2022-10-01T07:52:16.658Z,98574.59
2022-10-01T07:54:43.635Z,98568.16
2022-10-01T07:57:10.927Z,98569.47
2022-10-01T07:59:39.189Z,98563.22
2022-10-01T08:02:06.227Z,98567.19
2022-10-01T08:04:51.859Z,98560.13
2022-10-01T08:07:18.827Z,98561.25
2022-10-01T08:09:46.126Z,98560.78
2022-10-01T08:12:13.245Z,98560.28
2022-10-01T08:14:40.217Z,98555.00
2022-10-01T08:17:07.479Z,98558.78
2022-10-01T08:19:34.477Z,98565.53
2022-10-01T08:22:01.459Z,98563.22
2022-10-01T08:24:28.816Z,98557.97
2022-10-01T08:26:56.463Z,98545.94
2022-10-01T08:29:23.607Z,98538.34
2022-10-01T08:31:50.955Z,98531.13
2022-10-01T08:34:18.303Z,98533.91
2022-10-01T08:36:45.809Z,98525.34
2022-10-01T08:39:13.798Z,98519.88
2022-10-01T08:41:49.861Z,98522.37
2022-10-01T08:44:28.030Z,98527.31
2022-10-01T08:47:04.108Z,98532.25
2022-10-01T08:49:37.206Z,98513.78
2022-10-01T08:52:25.361Z,98526.94
2022-10-01T08:54:59.102Z,98528.44
2022-10-01T08:57:31.165Z,98530.91
2022-10-01T09:00:01.347Z,98532.34
2022-10-01T09:02:33.054Z,98528.50
2022-10-01T09:05:03.123Z,98526.62
2022-10-01T09:07:32.925Z,98515.44
2022-10-01T09:10:28.223Z,98519.03
2022-10-01T09:13:19.883Z,98521.94
2022-10-01T09:15:53.093Z,98523.47
2022-10-01T09:18:35.383Z,98522.16
2022-10-01T09:21:18.080Z,98519.53
2022-10-01T09:24:03.197Z,98521.09
2022-10-01T09:26:31.190Z,98520.81
2022-10-01T09:29:01.232Z,98513.44
2022-10-01T09:31:41.617Z,98515.37
2022-10-01T09:34:17.065Z,98505.53
2022-10-01T09:37:21.546Z,98513.59
2022-10-01T09:40:14.843Z,98513.28
2022-10-01T09:42:42.881Z,98517.28
2022-10-01T09:45:15.122Z,98516.19
2022-10-01T09:47:44.260Z,98515.28
2022-10-01T09:50:19.055Z,98518.03
2022-10-01T09:52:48.781Z,98518.84
2022-10-01T09:55:18.527Z,98513.34
2022-10-01T09:57:59.576Z,98504.09
2022-10-01T10:00:27.617Z,98496.69
2022-10-01T10:02:56.431Z,98495.09
2022-10-01T10:05:28.503Z,98493.97
2022-10-01T10:08:05.906Z,98495.72
2022-10-01T10:10:41.154Z,98490.44
2022-10-01T10:13:11.275Z,98492.19
2022-10-01T10:15:43.806Z,98489.63
2022-10-01T10:18:19.260Z,98491.87
2022-10-01T10:20:52.126Z,98492.84
2022-10-01T10:23:29.045Z,98491.47
2022-10-01T10:26:00.968Z,98498.69
2022-10-01T10:28:30.516Z,98484.00
2022-10-01T10:30:57.741Z,98478.47
2022-10-01T10:33:26.333Z,98487.25
2022-10-01T10:36:01.977Z,98481.31
2022-10-01T10:38:32.349Z,98473.12
2022-10-01T10:41:00.206Z,98480.91
2022-10-01T10:43:31.378Z,98471.53
2022-10-01T10:45:58.944Z,98471.91
2022-10-01T10:48:34.643Z,98465.56
2022-10-01T10:51:04.309Z,98460.41
2022-10-01T10:53:46.739Z,98458.81
2022-10-01T10:56:21.913Z,98455.09
2022-10-01T10:58:50.586Z,98451.84
2022-10-01T11:01:37.845Z,98442.81
2022-10-01T11:04:20.703Z,98441.81
2022-10-01T11:06:58.232Z,98442.62
2022-10-01T11:09:29.995Z,98433.84
2022-10-01T11:12:09.474Z,98434.44
2022-10-01T11:14:43.651Z,98421.34
2022-10-01T11:17:24.145Z,98418.19
2022-10-01T11:20:08.953Z,98412.34
2022-10-01T11:22:53.197Z,98413.22
2022-10-01T11:25:26.002Z,98406.41
2022-10-01T11:28:28.301Z,98399.06
2022-10-01T11:31:06.397Z,98392.13
2022-10-01T11:33:33.367Z,98389.47
2022-10-01T11:36:06.093Z,98383.34
2022-10-01T11:38:41.353Z,98381.53
2022-10-01T11:41:20.234Z,98380.28
2022-10-01T11:43:53.168Z,98369.66
2022-10-01T11:46:32.539Z,98356.19
2022-10-01T11:49:08.543Z,98367.00
2022-10-01T11:51:43.391Z,98363.91
2022-10-01T11:54:14.816Z,98357.31
2022-10-01T11:57:04.864Z,98359.91
2022-10-01T11:59:51.636Z,98363.84
2022-10-01T12:02:47.119Z,98358.12
2022-10-01T12:05:19.748Z,98356.75
2022-10-01T12:08:11.816Z,98354.72
2022-10-01T12:10:47.778Z,98353.72
2022-10-01T12:13:34.557Z,98354.72
2022-10-01T12:16:10.253Z,98356.19
2022-10-01T12:18:46.637Z,98351.69
2022-10-01T12:21:24.210Z,98350.03
2022-10-01T12:24:04.064Z,98342.06
2022-10-01T12:27:01.400Z,98348.38
2022-10-01T12:29:43.669Z,98341.53
2022-10-01T12:32:22.800Z,98348.66
2022-10-01T12:35:21.162Z,98340.88
2022-10-01T12:38:01.502Z,98335.28
2022-10-01T12:40:30.892Z,98345.38
2022-10-01T12:43:01.945Z,98343.47
2022-10-01T12:45:43.794Z,98342.25
2022-10-01T12:48:22.119Z,98334.88
2022-10-01T12:51:22.261Z,98319.47
2022-10-01T12:54:34.120Z,98312.00
2022-10-01T12:57:03.744Z,98301.44
2022-10-01T12:59:38.530Z,98297.06
2022-10-01T13:02:43.423Z,98296.31
2022-10-01T13:05:25.778Z,98299.16
2022-10-01T13:08:15.866Z,98277.87
2022-10-01T13:10:45.617Z,98275.62
2022-10-01T13:13:27.037Z,98281.38
2022-10-01T13:16:03.246Z,98276.66
2022-10-01T13:19:06.125Z,98267.91
2022-10-01T13:21:57.446Z,98253.59
2022-10-01T13:24:32.886Z,98258.53
2022-10-01T13:27:05.549Z,98258.94
2022-10-01T13:29:32.500Z,98237.09
2022-10-01T13:32:02.313Z,98238.53
2022-10-01T13:34:39.940Z,98235.00
2022-10-01T13:37:14.941Z,98249.91
2022-10-01T13:39:43.462Z,98271.22
2022-10-01T13:42:17.326Z,98269.03
2022-10-01T13:44:44.321Z,98254.84
2022-10-01T13:47:13.347Z,98264.41
2022-10-01T13:49:42.881Z,98259.12
2022-10-01T13:52:19.852Z,98245.75
2022-10-01T13:54:52.578Z,98249.50
2022-10-01T13:57:37.492Z,98238.34
2022-10-01T14:00:17.086Z,98237.75
2022-10-01T14:02:57.983Z,98235.13
2022-10-01T14:05:40.503Z,98235.16
2022-10-01T14:08:27.240Z,98234.84
2022-10-01T14:11:43.109Z,98243.59
2022-10-01T14:14:39.651Z,98243.00
2022-10-01T14:17:07.772Z,98240.28
2022-10-01T14:19:35.230Z,98236.84
2022-10-01T14:22:17.655Z,98235.63
2022-10-01T14:25:05.636Z,98238.78
2022-10-01T14:27:38.684Z,98228.53
2022-10-01T14:30:07.585Z,98231.91
2022-10-01T14:32:44.362Z,98226.75
2022-10-01T14:35:56.048Z,98239.09
2022-10-01T14:38:23.120Z,98230.97
2022-10-01T14:40:51.206Z,98224.44
2022-10-01T14:43:20.593Z,98214.69
2022-10-01T14:45:52.094Z,98220.41
2022-10-01T14:48:19.772Z,98219.09
2022-10-01T14:50:49.674Z,98223.56
2022-10-01T14:53:18.437Z,98217.34
2022-10-01T14:55:47.550Z,98225.50
2022-10-01T14:58:28.614Z,98227.00
2022-10-01T15:00:56.557Z,98229.59
2022-10-01T15:03:23.965Z,98223.81
2022-10-01T15:05:51.209Z,98228.06
2022-10-01T15:08:23.725Z,98240.56
2022-10-01T15:10:53.347Z,98240.09
2022-10-01T15:13:24.741Z,98248.75
2022-10-01T15:15:51.929Z,98243.56
2022-10-01T15:18:20.444Z,98242.88
2022-10-01T15:20:59.615Z,98245.06
2022-10-01T15:23:28.876Z,98249.50
2022-10-01T15:25:58.176Z,98254.84
2022-10-01T15:28:32.860Z,98250.44
2022-10-01T15:31:05.324Z,98250.63
2022-10-01T15:33:34.285Z,98244.53
2022-10-01T15:36:04.384Z,98248.34
2022-10-01T15:38:32.541Z,98255.97
2022-10-01T15:41:19.867Z,98250.47
2022-10-01T15:43:49.610Z,98247.19
2022-10-01T15:46:29.212Z,98243.41
2022-10-01T15:49:13.061Z,98245.41
2022-10-01T15:52:12.156Z,98250.91
2022-10-01T15:54:41.470Z,98258.63
2022-10-01T15:57:09.551Z,98252.56
2022-10-01T15:59:36.837Z,98251.06
2022-10-01T16:02:08.807Z,98242.75
2022-10-01T16:04:36.254Z,98242.81
2022-10-01T16:07:03.425Z,98243.00
2022-10-01T16:09:30.901Z,98240.25
2022-10-01T16:12:10.365Z,98249.81
2022-10-01T16:14:43.893Z,98238.78
2022-10-01T16:17:17.400Z,98242.94
2022-10-01T16:19:52.247Z,98246.56
2022-10-01T16:22:26.982Z,98245.25
2022-10-01T16:24:57.614Z,98239.97
2022-10-01T16:27:31.587Z,98249.88
2022-10-01T16:30:09.574Z,98252.75
2022-10-01T16:32:36.826Z,98245.53
2022-10-01T16:35:23.418Z,98245.53
2022-10-01T16:37:55.089Z,98249.84
2022-10-01T16:40:25.446Z,98256.72
2022-10-01T16:42:53.172Z,98241.28
2022-10-01T16:45:25.528Z,98242.13
2022-10-01T16:47:53.573Z,98242.94
2022-10-01T16:50:21.761Z,98249.22
2022-10-01T16:52:55.917Z,98240.81
2022-10-01T16:55:36.410Z,98253.16
2022-10-01T16:58:04.745Z,98251.81
2022-10-01T17:00:32.890Z,98243.78
2022-10-01T17:03:00.080Z,98245.25
2022-10-01T17:05:30.415Z,98249.03
2022-10-01T17:08:00.891Z,98241.47
2022-10-01T17:10:29.039Z,98230.31
2022-10-01T17:12:56.617Z,98230.78
2022-10-01T17:15:26.975Z,98228.66
2022-10-01T17:17:55.188Z,98233.28
2022-10-01T17:20:23.614Z,98224.25
2022-10-01T17:22:51.753Z,98241.00
2022-10-01T17:25:24.217Z,98239.22
2022-10-01T17:27:51.735Z,98228.53
2022-10-01T17:30:20.824Z,98236.91
2022-10-01T17:32:47.807Z,98234.78
2022-10-01T17:35:15.733Z,98228.19
2022-10-01T17:37:43.038Z,98226.25
2022-10-01T17:40:10.749Z,98229.03
2022-10-01T17:42:38.297Z,98233.63
2022-10-01T17:45:08.328Z,98238.06
2022-10-01T17:47:35.814Z,98237.75
2022-10-01T17:50:04.032Z,98243.97
2022-10-01T17:52:32.483Z,98250.69
2022-10-01T17:54:59.467Z,98246.78
2022-10-01T17:57:26.711Z,98258.13
2022-10-01T17:59:53.795Z,98268.13
2022-10-01T18:02:40.279Z,98257.28
2022-10-01T18:05:09.599Z,98262.19
2022-10-01T18:07:37.263Z,98264.81
2022-10-01T18:10:05.992Z,98258.91
2022-10-01T18:12:33.885Z,98253.97
2022-10-01T18:15:01.504Z,98246.59
2022-10-01T18:17:29.218Z,98265.13
2022-10-01T18:19:57.199Z,98266.59
2022-10-01T18:22:24.718Z,98274.62
2022-10-01T18:24:51.759Z,98286.16
2022-10-01T18:27:19.146Z,98296.31
2022-10-01T18:29:46.126Z,98296.63
2022-10-01T18:32:17.585Z,98296.94
2022-10-01T18:35:04.115Z,98301.69
2022-10-01T18:37:51.679Z,98310.56
2022-10-01T18:40:32.624Z,98309.22
2022-10-01T18:43:20.852Z,98312.84
2022-10-01T18:46:19.858Z,98316.91
2022-10-01T18:49:14.462Z,98324.44
2022-10-01T18:51:50.954Z,98319.88
2022-10-01T18:54:45.616Z,98316.37
2022-10-01T18:57:45.200Z,98327.75
2022-10-01T19:00:15.238Z,98320.88
2022-10-01T19:02:53.454Z,98330.38
2022-10-01T19:05:35.052Z,98352.88
2022-10-01T19:08:08.087Z,98347.06
2022-10-01T19:10:41.665Z,98344.59
2022-10-01T19:13:21.285Z,98339.34
2022-10-01T19:15:57.364Z,98339.66
2022-10-01T19:18:33.098Z,98330.78
2022-10-01T19:21:04.547Z,98324.06
2022-10-01T19:23:46.881Z,98339.97
2022-10-01T19:26:24.249Z,98340.91
2022-10-01T19:29:12.744Z,98344.38
2022-10-01T19:31:53.011Z,98341.28
2022-10-01T19:34:34.739Z,98348.69
2022-10-01T19:37:16.381Z,98348.84
2022-10-01T19:39:44.596Z,98366.25
2022-10-01T19:42:19.147Z,98359.03
2022-10-01T19:45:00.663Z,98367.22
2022-10-01T19:47:37.021Z,98371.34
2022-10-01T19:50:17.546Z,98373.00
2022-10-01T19:52:48.283Z,98365.44
2022-10-01T19:55:18.180Z,98377.94
2022-10-01T19:57:45.979Z,98371.34
2022-10-01T20:00:19.617Z,98376.59
2022-10-01T20:02:54.002Z,98368.72
2022-10-01T20:05:23.313Z,98379.22
2022-10-01T20:08:05.597Z,98379.38
2022-10-01T20:10:47.178Z,98373.97
2022-10-01T20:13:56.350Z,98384.16
2022-10-01T20:16:30.577Z,98381.53
2022-10-01T20:19:13.844Z,98384.47
2022-10-01T20:21:50.946Z,98388.38
2022-10-01T20:24:39.805Z,98386.28
2022-10-01T20:27:47.088Z,98391.69
2022-10-01T20:30:20.857Z,98387.41
2022-10-01T20:33:02.897Z,98389.88
2022-10-01T20:35:41.222Z,98394.00
2022-10-01T20:38:13.532Z,98395.63
2022-10-01T20:40:49.640Z,98399.91
2022-10-01T20:43:31.389Z,98398.94
2022-10-01T20:46:03.287Z,98404.53
2022-10-01T20:48:37.668Z,98401.75
2022-10-01T20:51:55.376Z,98406.03
2022-10-01T20:54:27.241Z,98417.03
2022-10-01T20:57:15.458Z,98420.81
2022-10-01T20:59:44.327Z,98425.44
2022-10-01T21:02:50.348Z,98430.84
2022-10-01T21:06:06.977Z,98434.78
2022-10-01T21:08:57.169Z,98435.38
2022-10-01T21:11:34.540Z,98440.25
2022-10-01T21:14:07.587Z,98444.50
2022-10-01T21:17:24.750Z,98447.28
2022-10-01T21:19:58.658Z,98448.69
2022-10-01T21:22:46.408Z,98454.16
2022-10-01T21:25:25.845Z,98448.22
2022-10-01T21:28:09.325Z,98447.38
2022-10-01T21:30:53.023Z,98447.16
2022-10-01T21:33:26.661Z,98434.97
2022-10-01T21:35:59.051Z,98430.97
2022-10-01T21:38:43.650Z,98430.91
2022-10-01T21:41:39.750Z,98446.25
2022-10-01T21:44:17.732Z,98439.00
2022-10-01T21:47:05.972Z,98448.28
2022-10-01T21:49:51.734Z,98445.50
2022-10-01T21:52:24.816Z,98446.50
2022-10-01T21:55:03.839Z,98435.62
2022-10-01T21:58:10.595Z,98442.53
2022-10-01T22:00:37.621Z,98447.53
2022-10-01T22:03:19.701Z,98441.16
2022-10-01T22:05:58.968Z,98446.03
2022-10-01T22:08:49.241Z,98452.41
2022-10-01T22:11:23.257Z,98455.59
2022-10-01T22:13:58.141Z,98445.56
2022-10-01T22:16:29.054Z,98446.53
2022-10-01T22:18:57.944Z,98454.53
2022-10-01T22:21:30.866Z,98461.28
2022-10-01T22:24:07.018Z,98462.84
2022-10-01T22:26:38.826Z,98467.78
2022-10-01T22:29:12.105Z,98466.97
2022-10-01T22:31:39.995Z,98470.19
2022-10-01T22:34:18.487Z,98472.28
2022-10-01T22:37:05.282Z,98471.72
2022-10-01T22:39:37.493Z,98472.53
2022-10-01T22:42:14.257Z,98482.78
2022-10-01T22:44:41.565Z,98479.50
2022-10-01T22:47:47.659Z,98490.56
2022-10-01T22:50:31.842Z,98490.31
2022-10-01T22:53:16.783Z,98496.81
2022-10-01T22:55:54.972Z,98501.78
2022-10-01T22:58:25.022Z,98507.75
2022-10-01T23:00:52.353Z,98501.69
2022-10-01T23:03:35.521Z,98510.34
2022-10-01T23:06:11.665Z,98502.38
2022-10-01T23:08:41.224Z,98500.41
2022-10-01T23:11:34.992Z,98501.13
2022-10-01T23:14:09.345Z,98495.47
2022-10-01T23:16:39.929Z,98497.38
2022-10-01T23:19:20.876Z,98488.12
2022-10-01T23:21:58.869Z,98487.00
2022-10-01T23:24:38.292Z,98480.91
2022-10-01T23:27:33.809Z,98485.78
2022-10-01T23:30:14.419Z,98480.97
2022-10-01T23:33:10.511Z,98472.66
2022-10-01T23:35:44.055Z,98477.47
2022-10-01T23:38:38.408Z,98483.53
2022-10-01T23:41:21.178Z,98480.22
2022-10-01T23:43:49.200Z,98486.13
2022-10-01T23:46:21.097Z,98487.13
2022-10-01T23:48:54.120Z,98502.16
2022-10-01T23:51:34.158Z,98504.91
2022-10-01T23:54:05.406Z,98508.69
2022-10-01T23:56:50.666Z,98502.44
2022-10-01T23:59:42.436Z,98507.03
